Time;durP1;ratioP1;P1;durP2;ratioP2;P2;SDS_P1;SDS_P2;PMS_P1;PMS_P2;Temp;Humidity;BMP_temperature;BMP_pressure;BME280_temperature;BME280_humidity;BME280_pressure;Samples;Min_cycle;Max_cycle;Signal;HPM_P1;HPM_P2
2024/01/19 00:02:13;;;;;;;23.90;14.30;;;;;;;10.95;100.00;98844.83;108290;1286;21991;-64
2024/01/19 00:04:39;;;;;;;21.30;13.40;;;;;;;10.93;100.00;98845.76;108400;1284;21985;-64
2024/01/19 00:07:04;;;;;;;16.60;11.40;;;;;;;10.93;100.00;98849.47;108125;1286;21987;-64
2024/01/19 00:09:30;;;;;;;18.40;10.80;;;;;;;10.91;100.00;98852.52;108076;1286;21989;-63
2024/01/19 00:11:56;;;;;;;14.90;10.80;;;;;;;10.88;100.00;98849.82;108144;1286;21989;-63
2024/01/19 00:14:21;;;;;;;17.00;10.30;;;;;;;10.83;100.00;98850.49;108071;1278;21991;-59
2024/01/19 00:16:47;;;;;;;18.20;11.30;;;;;;;10.77;100.00;98853.55;108273;1284;21996;-59
2024/01/19 00:19:12;;;;;;;23.50;14.50;;;;;;;10.71;100.00;98854.45;108181;1283;22467;-58
2024/01/19 00:21:44;;;;;;;20.10;12.60;;;;;;;10.67;100.00;98858.29;108175;1286;21993;-63
2024/01/19 00:24:14;;;;;;;17.20;12.60;;;;;;;10.67;100.00;98856.20;108230;1286;22000;-63
2024/01/19 00:26:40;;;;;;;16.20;11.20;;;;;;;10.66;100.00;98856.77;108017;1286;21988;-63
2024/01/19 00:29:05;;;;;;;17.90;11.70;;;;;;;10.67;100.00;98859.70;108131;1284;21997;-64
2024/01/19 00:31:31;;;;;;;19.10;11.40;;;;;;;10.70;100.00;98859.43;108120;1285;21991;-61
2024/01/19 00:33:57;;;;;;;23.00;14.00;;;;;;;10.71;100.00;98863.77;108192;1286;22046;-63
2024/01/19 00:36:23;;;;;;;26.00;14.70;;;;;;;10.70;100.00;98855.91;108136;1286;21991;-63
2024/01/19 00:38:48;;;;;;;21.00;13.10;;;;;;;10.69;100.00;98846.99;108316;1280;21992;-63
2024/01/19 00:41:15;;;;;;;19.20;10.80;;;;;;;10.68;100.00;98842.66;108228;1286;22011;-59
2024/01/19 00:43:40;;;;;;;17.60;11.80;;;;;;;10.70;100.00;98834.34;108063;1281;21990;-64
2024/01/19 00:46:07;;;;;;;24.20;14.30;;;;;;;10.71;100.00;98829.40;108098;1285;21988;-59
2024/01/19 00:48:35;;;;;;;17.30;10.70;;;;;;;10.72;100.00;98829.17;108162;1282;21990;-63
2024/01/19 00:51:00;;;;;;;18.60;11.00;;;;;;;10.71;100.00;98822.90;108176;1286;21989;-63
2024/01/19 00:53:26;;;;;;;18.20;11.20;;;;;;;10.72;100.00;98814.28;108064;1286;21992;-63
2024/01/19 00:55:51;;;;;;;17.40;11.00;;;;;;;10.71;100.00;98813.06;107342;1286;1002938;-63
2024/01/19 00:58:17;;;;;;;20.00;12.20;;;;;;;10.71;100.00;98809.73;108112;1277;23742;-59
2024/01/19 01:00:42;;;;;;;20.40;12.20;;;;;;;10.70;100.00;98808.55;108275;1286;21995;-59
2024/01/19 01:03:08;;;;;;;20.30;13.20;;;;;;;10.69;100.00;98804.73;108238;1286;21993;-59
2024/01/19 01:05:34;;;;;;;18.80;12.50;;;;;;;10.68;100.00;98804.75;108389;1286;22850;-64
2024/01/19 01:07:59;;;;;;;15.30;11.10;;;;;;;10.66;100.00;98802.75;108189;1286;22760;-63
2024/01/19 01:10:25;;;;;;;16.80;11.30;;;;;;;10.62;100.00;98803.77;108234;1286;21977;-59
2024/01/19 01:12:50;;;;;;;18.00;11.40;;;;;;;10.56;100.00;98804.88;108285;1282;21996;-59
2024/01/19 01:15:16;;;;;;;15.50;10.50;;;;;;;10.45;99.99;98803.87;108290;1286;21995;-63
2024/01/19 01:17:42;;;;;;;16.10;10.30;;;;;;;10.36;99.99;98799.95;108303;1284;21987;-59
2024/01/19 01:20:10;;;;;;;16.40;11.30;;;;;;;10.32;99.99;98805.73;108094;1282;21995;-59
2024/01/19 01:22:36;;;;;;;19.40;11.50;;;;;;;10.27;100.00;98802.21;108101;1287;21992;-64
2024/01/19 01:25:02;;;;;;;18.20;12.40;;;;;;;10.24;100.00;98801.97;108149;1285;21990;-64
2024/01/19 01:27:28;;;;;;;17.60;10.10;;;;;;;10.20;100.00;98796.84;108176;1281;21990;-64
2024/01/19 01:29:54;;;;;;;16.80;11.30;;;;;;;10.15;100.00;98793.35;108266;1277;21993;-59
2024/01/19 01:32:19;;;;;;;18.20;11.40;;;;;;;10.16;100.00;98798.73;108193;1286;21954;-64
2024/01/19 01:34:45;;;;;;;17.30;10.90;;;;;;;10.17;100.00;98801.70;108134;1284;22000;-59
2024/01/19 01:37:10;;;;;;;16.60;11.00;;;;;;;10.17;100.00;98798.91;108073;1286;21994;-64
2024/01/19 01:39:36;;;;;;;19.30;11.40;;;;;;;10.18;100.00;98802.00;108060;1284;22000;-59
2024/01/19 01:42:02;;;;;;;16.00;10.20;;;;;;;10.21;100.00;98802.61;108022;1283;22041;-58
2024/01/19 01:44:27;;;;;;;16.90;10.80;;;;;;;10.21;100.00;98803.13;108055;1286;22030;-59
2024/01/19 01:46:53;;;;;;;19.80;12.00;;;;;;;10.20;100.00;98802.98;108164;1286;21989;-63
2024/01/19 01:49:18;;;;;;;19.90;11.40;;;;;;;10.19;100.00;98807.95;108174;1286;21982;-63
2024/01/19 01:51:45;;;;;;;19.60;10.60;;;;;;;10.18;100.00;98804.65;108116;1286;22000;-63
2024/01/19 01:54:10;;;;;;;15.30;9.90;;;;;;;10.17;100.00;98805.23;108148;1273;21994;-64
2024/01/19 01:56:36;;;;;;;16.30;11.10;;;;;;;10.13;100.00;98806.56;107919;1286;21987;-60
2024/01/19 01:59:02;;;;;;;15.70;10.30;;;;;;;10.07;100.00;98806.59;107488;1283;1004061;-64
2024/01/19 02:01:27;;;;;;;17.30;11.10;;;;;;;10.02;100.00;98804.86;108171;1286;22001;-60
2024/01/19 02:03:54;;;;;;;16.60;10.80;;;;;;;9.96;100.00;98805.91;108233;1278;21987;-64
2024/01/19 02:06:20;;;;;;;17.00;10.90;;;;;;;9.95;100.00;98805.95;108296;1286;22093;-59
2024/01/19 02:08:45;;;;;;;17.50;10.60;;;;;;;9.94;100.00;98807.73;108108;1286;21998;-64
2024/01/19 02:11:11;;;;;;;17.60;11.00;;;;;;;9.97;100.00;98806.77;108180;1286;21987;-64
2024/01/19 02:13:36;;;;;;;16.50;10.30;;;;;;;10.00;100.00;98805.61;108125;1286;21959;-64
2024/01/19 02:16:03;;;;;;;18.10;10.90;;;;;;;10.04;100.00;98806.71;108129;1283;22001;-64
2024/01/19 02:18:29;;;;;;;19.80;10.70;;;;;;;10.09;100.00;98805.67;108083;1277;22026;-63
2024/01/19 02:20:54;;;;;;;16.20;11.00;;;;;;;10.10;100.00;98802.64;108290;1286;23049;-63
2024/01/19 02:23:20;;;;;;;16.00;11.20;;;;;;;10.19;100.00;98805.48;108278;1286;21986;-64
2024/01/19 02:25:45;;;;;;;20.00;10.60;;;;;;;10.24;100.00;98807.21;108244;1286;21993;-59
2024/01/19 02:28:12;;;;;;;17.40;11.60;;;;;;;10.27;100.00;98801.69;108168;1286;22129;-64
2024/01/19 02:30:38;;;;;;;20.80;11.70;;;;;;;10.24;100.00;98803.18;108219;1286;21985;-64
2024/01/19 02:33:03;;;;;;;16.10;11.10;;;;;;;10.28;100.00;98798.32;108144;1282;22024;-60
2024/01/19 02:35:29;;;;;;;17.10;11.10;;;;;;;10.37;100.00;98794.66;108194;1281;22029;-64
2024/01/19 02:37:55;;;;;;;18.10;11.50;;;;;;;10.48;100.00;98794.98;108112;1286;22027;-64
2024/01/19 02:40:20;;;;;;;19.00;11.00;;;;;;;10.56;100.00;98797.52;108112;1286;21980;-64
2024/01/19 02:42:46;;;;;;;19.20;11.10;;;;;;;10.64;100.00;98798.09;108177;1286;21990;-59
2024/01/19 02:45:11;;;;;;;19.50;11.00;;;;;;;10.66;100.00;98800.83;108274;1284;21985;-59
2024/01/19 02:47:37;;;;;;;16.00;9.60;;;;;;;10.69;100.00;98801.73;108060;1286;21996;-59
2024/01/19 02:50:03;;;;;;;18.00;10.20;;;;;;;10.74;100.00;98803.67;108059;1285;21991;-59
2024/01/19 02:52:28;;;;;;;18.70;11.10;;;;;;;10.80;100.00;98804.67;108129;1283;22030;-64
2024/01/19 02:54:54;;;;;;;16.20;9.90;;;;;;;10.87;100.00;98804.40;108106;1286;21995;-64
2024/01/19 02:57:20;;;;;;;12.50;9.10;;;;;;;10.95;100.00;98805.30;108099;1277;21987;-60
2024/01/19 02:59:46;;;;;;;14.20;9.60;;;;;;;10.97;100.00;98802.95;108096;1277;21993;-64
2024/01/19 03:02:12;;;;;;;14.00;9.20;;;;;;;10.99;100.00;98805.51;108123;1276;21993;-64
2024/01/19 03:04:38;;;;;;;14.80;9.30;;;;;;;11.02;100.00;98808.55;108160;1286;21993;-61
2024/01/19 03:07:04;;;;;;;17.00;10.10;;;;;;;11.05;100.00;98810.38;108149;1286;21997;-60
2024/01/19 03:09:30;;;;;;;15.70;9.80;;;;;;;11.05;100.00;98813.19;108098;1286;22692;-64
2024/01/19 03:11:55;;;;;;;16.80;10.20;;;;;;;11.03;100.00;98814.32;108090;1286;22001;-59
2024/01/19 03:14:21;;;;;;;15.10;9.30;;;;;;;10.98;100.00;98813.81;108096;1281;21986;-59
2024/01/19 03:16:46;;;;;;;14.20;10.10;;;;;;;10.93;100.00;98812.05;108109;1286;24277;-59
2024/01/19 03:19:14;;;;;;;15.50;9.60;;;;;;;10.89;100.00;98810.11;106553;1273;1003140;-59
2024/01/19 03:21:39;;;;;;;16.30;9.80;;;;;;;10.84;100.00;98810.65;108147;1286;21986;-59
2024/01/19 03:24:05;;;;;;;15.70;10.00;;;;;;;10.80;100.00;98809.60;108139;1280;22573;-59
2024/01/19 03:26:31;;;;;;;18.10;11.90;;;;;;;10.77;100.00;98809.35;108145;1286;21987;-59
2024/01/19 03:28:57;;;;;;;18.50;11.00;;;;;;;10.71;100.00;98810.29;108178;1284;21979;-60
2024/01/19 03:31:22;;;;;;;15.90;10.00;;;;;;;10.65;100.00;98808.73;108232;1286;21991;-60
2024/01/19 03:33:48;;;;;;;16.40;10.20;;;;;;;10.60;100.00;98806.84;108167;1283;22081;-60
2024/01/19 03:36:14;;;;;;;15.90;10.00;;;;;;;10.56;100.00;98803.27;108215;1286;21993;-64
2024/01/19 03:38:39;;;;;;;18.40;10.10;;;;;;;10.53;100.00;98803.22;108273;1286;21990;-64
2024/01/19 03:41:05;;;;;;;18.10;11.70;;;;;;;10.49;100.00;98801.46;108143;1286;21996;-59
2024/01/19 03:43:31;;;;;;;13.80;9.40;;;;;;;10.44;100.00;98793.58;106741;1286;1002625;-60
2024/01/19 03:45:57;;;;;;;15.80;10.30;;;;;;;10.45;100.00;98790.73;108299;1286;22038;-64
2024/01/19 03:48:23;;;;;;;16.10;10.00;;;;;;;10.43;100.00;98792.54;108066;1286;22849;-64
2024/01/19 03:50:48;;;;;;;15.40;9.60;;;;;;;10.42;100.00;98795.38;108067;1286;22004;-63
2024/01/19 03:53:14;;;;;;;15.00;10.20;;;;;;;10.40;100.00;98802.11;108084;1286;21996;-63
2024/01/19 03:55:39;;;;;;;14.90;9.50;;;;;;;10.42;100.00;98812.40;108198;1282;21988;-63
2024/01/19 03:58:05;;;;;;;16.20;10.20;;;;;;;10.43;100.00;98809.90;108288;1286;21992;-63
2024/01/19 04:00:31;;;;;;;14.30;9.40;;;;;;;10.44;100.00;98812.16;108105;1283;21991;-64
2024/01/19 04:02:56;;;;;;;15.90;9.60;;;;;;;10.43;100.00;98814.11;108102;1286;21983;-63
2024/01/19 04:05:22;;;;;;;16.20;10.10;;;;;;;10.38;100.00;98811.30;108209;1273;22020;-64
2024/01/19 04:07:47;;;;;;;17.10;9.50;;;;;;;10.35;100.00;98814.21;108227;1286;22026;-64
2024/01/19 04:10:13;;;;;;;12.90;9.10;;;;;;;10.35;100.00;98814.75;108143;1286;21986;-59
2024/01/19 04:12:38;;;;;;;15.30;9.60;;;;;;;10.34;100.00;98815.83;108169;1286;21996;-63
2024/01/19 04:15:05;;;;;;;13.60;9.00;;;;;;;10.33;100.00;98820.23;108204;1284;21991;-60
2024/01/19 04:17:30;;;;;;;13.00;9.60;;;;;;;10.34;100.00;98823.36;108297;1286;22043;-60
2024/01/19 04:19:56;;;;;;;13.70;8.70;;;;;;;10.34;100.00;98824.75;108224;1286;21990;-60
2024/01/19 04:22:23;;;;;;;13.80;8.70;;;;;;;10.33;100.00;98822.33;108274;1286;21996;-63
2024/01/19 04:24:48;;;;;;;14.00;8.50;;;;;;;10.32;100.00;98826.05;108038;1286;21989;-60
2024/01/19 04:27:14;;;;;;;14.70;8.50;;;;;;;10.29;100.00;98822.30;108257;1286;21992;-65
2024/01/19 04:29:39;;;;;;;15.50;8.60;;;;;;;10.24;100.00;98814.80;108125;1286;21997;-65
2024/01/19 04:32:05;;;;;;;11.10;8.10;;;;;;;10.22;100.00;98809.23;108266;1286;21989;-65
2024/01/19 04:34:31;;;;;;;15.40;8.60;;;;;;;10.21;100.00;98809.42;108099;1286;21994;-64
2024/01/19 04:36:56;;;;;;;13.60;9.00;;;;;;;10.21;100.00;98818.55;108171;1286;21998;-60
2024/01/19 04:39:22;;;;;;;14.30;9.30;;;;;;;10.20;100.00;98816.30;108076;1286;23433;-60
2024/01/19 04:41:47;;;;;;;13.10;8.60;;;;;;;10.17;100.00;98816.76;108121;1286;21987;-65
2024/01/19 04:44:14;;;;;;;13.90;8.70;;;;;;;10.16;100.00;98809.80;108112;1283;21997;-64
2024/01/19 04:46:39;;;;;;;13.70;8.10;;;;;;;10.17;100.00;98806.77;108177;1286;21994;-61
2024/01/19 04:49:05;;;;;;;13.00;7.60;;;;;;;10.20;100.00;98815.80;108220;1286;23644;-60
2024/01/19 04:51:31;;;;;;;12.90;8.30;;;;;;;10.22;100.00;98823.27;108163;1286;21984;-61
2024/01/19 04:53:58;;;;;;;11.80;7.60;;;;;;;10.22;100.00;98827.98;108123;1286;22002;-59
2024/01/19 04:56:24;;;;;;;12.50;7.90;;;;;;;10.22;100.00;98837.63;108081;1286;21983;-64
2024/01/19 04:58:49;;;;;;;11.70;7.40;;;;;;;10.20;100.00;98845.05;108115;1286;21995;-60
2024/01/19 05:01:15;;;;;;;11.10;8.40;;;;;;;10.19;100.00;98853.17;108135;1277;24314;-60
2024/01/19 05:03:41;;;;;;;14.20;7.30;;;;;;;10.17;100.00;98864.43;108261;1286;22001;-60
2024/01/19 05:06:06;;;;;;;12.90;8.70;;;;;;;10.17;100.00;98866.55;108142;1283;21984;-65
2024/01/19 05:08:32;;;;;;;14.40;7.90;;;;;;;10.15;100.00;98870.83;108095;1281;22004;-64
2024/01/19 05:10:58;;;;;;;11.00;7.50;;;;;;;10.12;100.00;98876.36;107888;1286;22155;-62
2024/01/19 05:13:23;;;;;;;11.30;7.30;;;;;;;10.08;100.00;98879.47;108120;1277;21997;-65
2024/01/19 05:15:49;;;;;;;14.70;7.70;;;;;;;10.03;100.00;98881.23;108072;1286;21995;-62
2024/01/19 05:18:15;;;;;;;11.20;6.90;;;;;;;10.03;100.00;98877.55;108088;1281;21996;-60
2024/01/19 05:20:40;;;;;;;13.00;7.50;;;;;;;10.02;99.99;98880.20;108145;1286;21998;-60
2024/01/19 05:23:06;;;;;;;14.20;7.50;;;;;;;10.02;99.93;98886.19;107504;1277;1003019;-65
2024/01/19 05:25:32;;;;;;;11.10;7.10;;;;;;;9.99;99.85;98889.41;108287;1276;21993;-64
2024/01/19 05:27:58;;;;;;;11.40;7.40;;;;;;;9.96;99.75;98892.11;106746;1283;1002513;-59
2024/01/19 05:30:25;;;;;;;11.30;7.20;;;;;;;9.95;99.80;98892.00;108316;1278;22020;-65
2024/01/19 05:32:52;;;;;;;12.80;7.60;;;;;;;9.92;99.95;98893.87;108216;1287;22000;-64
2024/01/19 05:35:18;;;;;;;11.90;7.60;;;;;;;9.89;99.91;98899.40;108104;1287;22002;-63
2024/01/19 05:37:43;;;;;;;10.50;6.80;;;;;;;9.87;99.94;98898.23;108084;1281;22107;-60
2024/01/19 05:40:09;;;;;;;12.40;7.20;;;;;;;9.87;100.00;98899.96;108160;1276;22037;-60
2024/01/19 05:42:35;;;;;;;10.90;7.40;;;;;;;9.87;100.00;98896.62;108113;1280;22000;-63
2024/01/19 05:45:01;;;;;;;13.90;8.30;;;;;;;9.89;100.00;98896.23;108183;1277;21992;-64
2024/01/19 05:47:26;;;;;;;12.60;7.70;;;;;;;9.91;100.00;98900.55;108143;1287;22004;-63
2024/01/19 05:49:52;;;;;;;12.40;7.70;;;;;;;9.92;100.00;98905.94;108189;1287;21998;-60
2024/01/19 05:52:18;;;;;;;14.70;8.60;;;;;;;9.95;100.00;98912.48;108118;1287;21995;-59
2024/01/19 05:54:44;;;;;;;12.60;8.20;;;;;;;9.96;100.00;98912.80;108232;1287;22004;-64
2024/01/19 05:57:09;;;;;;;18.10;10.90;;;;;;;9.98;100.00;98909.41;108082;1287;21994;-64
2024/01/19 05:59:38;;;;;;;14.70;9.10;;;;;;;9.99;100.00;98917.46;108129;1287;21996;-59
2024/01/19 06:02:04;;;;;;;12.50;8.40;;;;;;;10.00;100.00;98925.66;108172;1287;21994;-60
2024/01/19 06:04:36;;;;;;;14.20;8.60;;;;;;;10.02;100.00;98934.52;108138;1287;22007;-64
2024/01/19 06:07:02;;;;;;;15.60;8.50;;;;;;;10.01;100.00;98937.71;108131;1287;21991;-60
2024/01/19 06:09:29;;;;;;;13.10;8.10;;;;;;;10.01;100.00;98940.86;108205;1276;22012;-63
2024/01/19 06:11:54;;;;;;;13.60;8.20;;;;;;;10.02;100.00;98942.59;108204;1287;22008;-61
2024/01/19 06:14:20;;;;;;;10.70;7.80;;;;;;;10.04;100.00;98940.61;108142;1280;21996;-63
2024/01/19 06:16:45;;;;;;;13.30;8.50;;;;;;;10.08;100.00;98944.67;108128;1287;21989;-63
2024/01/19 06:19:11;;;;;;;12.70;8.40;;;;;;;10.14;100.00;98945.16;108161;1287;21989;-60
2024/01/19 06:21:37;;;;;;;12.60;7.80;;;;;;;10.22;100.00;98944.38;108188;1280;22000;-64
2024/01/19 06:24:02;;;;;;;13.00;7.60;;;;;;;10.32;100.00;98945.98;108156;1287;21995;-59
2024/01/19 06:26:32;;;;;;;14.70;9.00;;;;;;;10.42;100.00;98957.59;108099;1287;22045;-60
2024/01/19 06:28:58;;;;;;;12.50;8.10;;;;;;;10.52;100.00;98966.54;108182;1286;21990;-60
2024/01/19 06:31:24;;;;;;;12.60;7.90;;;;;;;10.62;100.00;98970.07;108119;1287;21989;-60
2024/01/19 06:33:49;;;;;;;15.20;8.20;;;;;;;10.71;100.00;98980.64;108139;1284;21999;-60
2024/01/19 06:36:15;;;;;;;13.10;8.50;;;;;;;10.77;100.00;98990.24;108164;1287;21991;-59
2024/01/19 06:38:41;;;;;;;11.30;7.90;;;;;;;10.83;100.00;98998.42;108042;1287;23705;-59
2024/01/19 06:41:06;;;;;;;14.90;8.90;;;;;;;10.89;100.00;98996.85;108132;1287;21990;-59
2024/01/19 06:43:32;;;;;;;14.50;8.90;;;;;;;10.92;100.00;98995.85;108127;1287;21998;-59
2024/01/19 06:45:59;;;;;;;13.70;8.50;;;;;;;10.94;100.00;98992.62;108152;1287;21985;-63
2024/01/19 06:48:25;;;;;;;14.90;8.90;;;;;;;10.96;100.00;98991.66;108209;1286;21992;-64
2024/01/19 06:50:51;;;;;;;14.90;8.90;;;;;;;10.97;100.00;98987.77;108178;1276;21991;-63
2024/01/19 06:53:16;;;;;;;15.80;9.90;;;;;;;10.98;100.00;98989.13;108176;1285;21995;-60
2024/01/19 06:55:42;;;;;;;14.20;9.20;;;;;;;10.99;100.00;98986.83;108084;1276;22028;-63
2024/01/19 06:58:08;;;;;;;17.30;10.60;;;;;;;11.02;100.00;98981.45;108103;1285;22049;-59
2024/01/19 07:00:33;;;;;;;18.50;13.20;;;;;;;11.05;100.00;98983.95;108078;1286;22002;-63
2024/01/19 07:02:59;;;;;;;17.90;11.80;;;;;;;11.10;100.00;98986.09;108068;1278;21999;-62
2024/01/19 07:05:25;;;;;;;15.90;10.60;;;;;;;11.12;100.00;98983.70;108234;1287;21985;-63
2024/01/19 07:07:51;;;;;;;15.40;9.30;;;;;;;11.16;100.00;98989.02;108215;1287;22042;-59
2024/01/19 07:10:18;;;;;;;14.60;10.20;;;;;;;11.21;100.00;98994.27;108071;1287;22030;-59
2024/01/19 07:12:44;;;;;;;16.10;9.90;;;;;;;11.26;100.00;98991.61;108084;1287;22203;-59
2024/01/19 07:15:10;;;;;;;14.80;9.50;;;;;;;11.28;100.00;98987.70;108079;1287;21985;-63
2024/01/19 07:17:35;;;;;;;15.20;10.10;;;;;;;11.29;100.00;98989.58;108270;1287;23076;-63
2024/01/19 07:20:03;;;;;;;13.40;9.30;;;;;;;11.33;100.00;98983.13;108235;1287;22047;-59
2024/01/19 07:22:29;;;;;;;19.20;11.20;;;;;;;11.34;100.00;98976.08;108172;1287;21980;-59
2024/01/19 07:24:54;;;;;;;20.50;13.00;;;;;;;11.35;100.00;98976.20;108094;1280;21989;-59
2024/01/19 07:27:20;;;;;;;18.90;11.10;;;;;;;11.36;100.00;98982.48;108081;1287;22106;-62
2024/01/19 07:29:45;;;;;;;26.00;16.10;;;;;;;11.37;100.00;98988.61;108091;1286;22074;-62
2024/01/19 07:32:11;;;;;;;33.20;21.30;;;;;;;11.40;100.00;98993.06;108131;1277;23742;-59
2024/01/19 07:34:37;;;;;;;27.40;17.60;;;;;;;11.41;100.00;99002.84;108088;1281;21995;-59
2024/01/19 07:37:02;;;;;;;24.10;12.30;;;;;;;11.32;100.00;99004.41;108113;1284;21991;-62
2024/01/19 07:39:29;;;;;;;22.50;15.50;;;;;;;11.29;100.00;98995.56;108110;1286;22010;-59
2024/01/19 07:41:55;;;;;;;15.20;10.70;;;;;;;11.32;100.00;98992.65;108178;1281;21991;-60
2024/01/19 07:44:21;;;;;;;15.00;9.50;;;;;;;11.35;100.00;98993.77;108197;1286;147761;-59
2024/01/19 07:46:47;;;;;;;15.50;10.20;;;;;;;11.39;100.00;98996.94;108110;1286;22007;-63
2024/01/19 07:49:12;;;;;;;17.70;10.60;;;;;;;11.48;100.00;99009.98;108219;1286;22026;-59
2024/01/19 07:51:39;;;;;;;15.20;10.90;;;;;;;11.57;100.00;99023.31;108178;1286;21992;-63
2024/01/19 07:54:04;;;;;;;18.60;13.20;;;;;;;11.57;100.00;99027.19;108073;1286;21992;-63
2024/01/19 07:56:30;;;;;;;21.90;15.20;;;;;;;11.57;100.00;99028.08;108099;1286;22034;-60
2024/01/19 07:58:56;;;;;;;17.90;10.10;;;;;;;11.56;100.00;99031.08;108092;1286;22001;-63
2024/01/19 08:01:23;;;;;;;14.40;9.90;;;;;;;11.56;100.00;99037.23;108104;1284;22001;-63
2024/01/19 08:03:50;;;;;;;17.60;9.80;;;;;;;11.54;100.00;99039.07;108132;1283;21987;-62
2024/01/19 08:06:16;;;;;;;15.10;10.10;;;;;;;11.53;100.00;99038.59;108140;1286;22032;-59
2024/01/19 08:08:43;;;;;;;16.50;9.70;;;;;;;11.52;100.00;99037.72;108133;1286;23211;-63
2024/01/19 08:11:10;;;;;;;15.40;10.30;;;;;;;11.52;100.00;99040.89;108135;1286;21989;-60
2024/01/19 08:13:39;;;;;;;15.30;10.80;;;;;;;11.53;100.00;99041.73;108096;1286;21987;-61
2024/01/19 08:16:09;;;;;;;18.60;11.30;;;;;;;11.56;100.00;99044.63;108166;1286;23643;-62
2024/01/19 08:18:38;;;;;;;22.90;13.80;;;;;;;11.59;100.00;99043.80;108181;1286;23619;-62
2024/01/19 08:21:07;;;;;;;22.50;14.40;;;;;;;11.62;100.00;99040.00;108150;1286;23724;-60
2024/01/19 08:23:33;;;;;;;18.40;11.80;;;;;;;11.63;100.00;99035.24;108166;1286;23058;-62
2024/01/19 08:26:01;;;;;;;14.30;9.30;;;;;;;11.64;100.00;99033.40;108131;1284;21997;-59
2024/01/19 08:28:30;;;;;;;15.80;9.90;;;;;;;11.63;100.00;99032.22;107945;1286;22746;-59
2024/01/19 08:30:56;;;;;;;16.90;10.50;;;;;;;11.59;100.00;99040.64;108199;1286;21996;-61
2024/01/19 08:33:24;;;;;;;14.00;9.20;;;;;;;11.62;100.00;99055.45;108103;1286;22130;-62
2024/01/19 08:35:52;;;;;;;17.10;9.80;;;;;;;11.63;100.00;99057.00;108130;1286;21995;-59
2024/01/19 08:38:23;;;;;;;16.90;10.00;;;;;;;11.63;100.00;99056.83;108069;1288;22006;-61
2024/01/19 08:40:52;;;;;;;15.40;10.00;;;;;;;11.63;100.00;99062.27;108032;1288;21980;-59
2024/01/19 08:43:19;;;;;;;17.90;10.20;;;;;;;11.65;100.00;99064.14;108085;1288;23052;-63
2024/01/19 08:45:46;;;;;;;15.20;10.10;;;;;;;11.65;100.00;99062.94;108033;1288;23075;-63
2024/01/19 08:48:15;;;;;;;14.80;10.10;;;;;;;11.64;100.00;99061.02;108027;1288;21994;-62
2024/01/19 08:50:44;;;;;;;15.70;9.50;;;;;;;11.65;100.00;99064.50;108264;1286;23112;-61
2024/01/19 08:53:11;;;;;;;14.50;9.80;;;;;;;11.68;100.00;99067.89;106563;1288;1002296;-62
2024/01/19 08:55:39;;;;;;;15.70;9.90;;;;;;;11.78;100.00;99068.74;109006;1288;22001;-59
2024/01/19 08:58:05;;;;;;;15.00;9.80;;;;;;;11.95;100.00;99072.86;109057;1285;22109;-62
2024/01/19 09:00:31;;;;;;;15.90;9.90;;;;;;;12.13;100.00;99077.27;107996;1287;22462;-63
2024/01/19 09:02:58;;;;;;;17.70;10.70;;;;;;;12.25;100.00;99081.55;107991;1288;22010;-63
2024/01/19 09:05:24;;;;;;;15.30;10.60;;;;;;;12.28;100.00;99087.08;107936;1288;22049;-63
2024/01/19 09:07:52;;;;;;;16.30;10.30;;;;;;;12.31;100.00;99084.99;107227;1288;1002139;-61
2024/01/19 09:10:19;;;;;;;17.50;11.50;;;;;;;12.31;100.00;99089.59;108111;1288;22000;-63
2024/01/19 09:12:48;;;;;;;16.00;10.80;;;;;;;12.36;100.00;99100.27;108051;1288;22017;-60
2024/01/19 09:15:16;;;;;;;21.20;13.90;;;;;;;12.45;100.00;99103.98;107869;1288;21996;-62
2024/01/19 09:17:45;;;;;;;18.50;11.40;;;;;;;12.50;100.00;99111.53;108130;1288;23615;-60
2024/01/19 09:20:11;;;;;;;17.50;11.30;;;;;;;12.57;100.00;99111.20;108084;1288;22000;-60
2024/01/19 09:22:37;;;;;;;17.30;11.50;;;;;;;12.67;100.00;99109.95;108084;1288;22031;-62
2024/01/19 09:25:04;;;;;;;17.30;10.80;;;;;;;12.70;100.00;99109.98;108080;1288;22003;-62
2024/01/19 09:27:30;;;;;;;16.10;10.00;;;;;;;12.77;100.00;99121.13;108074;1288;21989;-62
2024/01/19 09:29:56;;;;;;;18.60;11.00;;;;;;;12.82;100.00;99125.48;108092;1288;22000;-62
2024/01/19 09:32:22;;;;;;;17.50;11.60;;;;;;;12.87;100.00;99130.23;108086;1286;21991;-60
2024/01/19 09:34:48;;;;;;;16.70;10.80;;;;;;;12.77;100.00;99127.81;108230;1283;21998;-61
2024/01/19 09:37:14;;;;;;;14.80;10.10;;;;;;;12.85;100.00;99120.31;108089;1286;21991;-61
2024/01/19 09:39:40;;;;;;;17.00;12.00;;;;;;;12.99;100.00;99113.73;108099;1286;21989;-59
2024/01/19 09:42:28;;;;;;;17.10;10.50;;;;;;;13.20;100.00;99116.54;108076;1286;22113;-61
2024/01/19 09:45:04;;;;;;;17.90;10.50;;;;;;;13.40;100.00;99124.64;108176;1286;21988;-59
2024/01/19 09:47:42;;;;;;;17.80;12.10;;;;;;;13.58;100.00;99130.42;108119;1286;23769;-62
2024/01/19 09:50:08;;;;;;;22.00;11.60;;;;;;;13.73;100.00;99136.45;108232;1284;21988;-59
2024/01/19 09:52:43;;;;;;;19.20;11.60;;;;;;;13.92;100.00;99137.00;108178;1286;21984;-59
2024/01/19 09:55:11;;;;;;;22.00;12.60;;;;;;;14.15;100.00;99143.17;108086;1286;21996;-61
2024/01/19 09:57:45;;;;;;;21.50;10.10;;;;;;;14.36;100.00;99153.29;108211;1284;22770;-59
2024/01/19 10:00:15;;;;;;;15.70;10.50;;;;;;;14.54;100.00;99158.27;108167;1286;21984;-62
2024/01/19 10:02:49;;;;;;;12.50;8.20;;;;;;;14.65;100.00;99163.95;108243;1286;22030;-61
2024/01/19 10:05:16;;;;;;;16.50;12.10;;;;;;;14.66;100.00;99167.42;108108;1286;22029;-60
2024/01/19 10:07:43;;;;;;;22.20;15.20;;;;;;;14.54;99.56;99171.67;108032;1286;21990;-59
2024/01/19 10:10:11;;;;;;;40.80;25.20;;;;;;;14.37;98.85;99179.90;108288;1286;22004;-61
2024/01/19 10:12:39;;;;;;;70.20;37.50;;;;;;;14.30;98.82;99179.88;108301;1286;21996;-61
2024/01/19 10:15:11;;;;;;;24.70;18.60;;;;;;;14.19;99.15;99180.21;108506;1283;21990;-61
2024/01/19 10:17:37;;;;;;;18.70;12.70;;;;;;;14.16;99.73;99180.20;108200;1283;21992;-61
2024/01/19 10:20:03;;;;;;;16.10;11.10;;;;;;;14.06;99.55;99180.08;107351;1286;1002414;-60
2024/01/19 10:22:30;;;;;;;13.60;9.60;;;;;;;14.03;99.89;99181.80;108238;1283;23097;-59
2024/01/19 10:25:04;;;;;;;17.50;10.80;;;;;;;13.98;99.81;99193.67;108304;1284;22006;-59
2024/01/19 10:27:41;;;;;;;14.70;9.70;;;;;;;13.99;99.92;99203.35;108140;1286;21991;-59
2024/01/19 10:30:25;;;;;;;18.50;10.90;;;;;;;13.97;100.00;99206.77;108144;1283;22003;-60
2024/01/19 10:32:51;;;;;;;14.10;9.90;;;;;;;13.94;100.00;99211.35;108053;1286;22012;-59
2024/01/19 10:35:18;;;;;;;15.60;9.80;;;;;;;13.87;100.00;99205.64;108050;1288;22151;-59
2024/01/19 10:37:44;;;;;;;15.10;10.10;;;;;;;13.81;99.94;99204.65;108094;1288;21993;-60
2024/01/19 10:40:20;;;;;;;14.30;10.00;;;;;;;13.86;100.00;99203.95;108043;1288;22176;-59
2024/01/19 10:42:50;;;;;;;15.00;10.30;;;;;;;13.79;100.00;99212.52;108064;1288;21992;-60
2024/01/19 10:45:18;;;;;;;14.90;10.40;;;;;;;13.79;99.94;99223.98;107977;1288;22017;-59
2024/01/19 10:47:47;;;;;;;14.60;10.70;;;;;;;13.71;99.91;99235.23;108185;1288;23116;-59
2024/01/19 10:50:14;;;;;;;13.50;9.10;;;;;;;13.70;99.97;99243.75;108037;1288;21993;-59
2024/01/19 10:52:44;;;;;;;15.20;10.30;;;;;;;13.68;99.88;99253.36;108062;1286;21995;-59
2024/01/19 10:55:15;;;;;;;13.80;9.30;;;;;;;13.58;99.53;99259.45;108074;1288;21993;-60
2024/01/19 10:57:41;;;;;;;14.30;9.50;;;;;;;13.53;99.36;99259.79;108068;1288;22315;-59
2024/01/19 11:00:20;;;;;;;15.60;11.00;;;;;;;13.45;99.66;99254.17;108051;1288;22057;-60
2024/01/19 11:02:47;;;;;;;17.30;12.70;;;;;;;13.46;99.87;99255.38;108095;1284;21997;-59